Time;durP1;ratioP1;P1;durP2;ratioP2;P2;SDS_P1;SDS_P2;PMS_P1;PMS_P2;Temp;Humidity;BMP_temperature;BMP_pressure;BME280_temperature;BME280_humidity;BME280_pressure;Samples;Min_cycle;Max_cycle;Signal;HPM_P1;HPM_P2
2023/06/29 00:03:04;;;;;;;1999.90;999.90;;;19.70;99.90;;;;;;6742117;88;20189;-81
2023/06/29 00:13:05;;;;;;;1999.90;999.90;;;19.50;99.90;;;;;;6741585;88;20189;-80
2023/06/29 00:23:05;;;;;;;1999.90;999.90;;;19.40;99.90;;;;;;6740933;88;20189;-81
2023/06/29 00:33:06;;;;;;;1999.90;999.90;;;19.30;99.90;;;;;;6740187;88;20316;-80
2023/06/29 00:43:08;;;;;;;1999.90;999.90;;;19.40;99.90;;;;;;6739115;88;20964;-79
2023/06/29 00:53:08;;;;;;;1999.90;999.90;;;19.20;99.90;;;;;;6740477;88;20239;-81
2023/06/29 01:03:11;;;;;;;1999.90;999.90;;;19.20;99.90;;;;;;6749320;88;20200;-79
2023/06/29 01:13:13;;;;;;;1999.90;999.90;;;19.20;99.90;;;;;;6737036;88;20192;-79
2023/06/29 01:23:23;;;;;;;1999.90;999.90;;;19.10;99.90;;;;;;6739051;88;20949;-79
2023/06/29 01:33:24;;;;;;;1999.90;999.90;;;19.00;99.90;;;;;;6738787;88;20206;-81
2023/06/29 01:43:28;;;;;;;1999.90;999.90;;;19.00;99.90;;;;;;6739590;88;20205;-80
2023/06/29 01:53:28;;;;;;;1999.90;999.90;;;18.80;99.90;;;;;;6725990;88;20209;-79
2023/06/29 02:03:29;;;;;;;1999.90;999.90;;;18.70;99.90;;;;;;6737761;88;20280;-79
2023/06/29 02:13:29;;;;;;;1999.90;999.90;;;18.70;99.90;;;;;;6741439;88;20166;-79
2023/06/29 02:23:30;;;;;;;1999.90;999.90;;;18.60;99.90;;;;;;6740772;88;20178;-79
2023/06/29 02:33:30;;;;;;;1999.90;999.90;;;18.70;99.90;;;;;;6737308;88;20192;-80
2023/06/29 02:43:31;;;;;;;1999.90;999.90;;;18.90;99.90;;;;;;6729136;88;20210;-79
2023/06/29 02:53:32;;;;;;;1999.90;999.90;;;18.80;99.90;;;;;;6739539;88;20298;-79
2023/06/29 03:03:32;;;;;;;1999.90;999.90;;;18.70;99.90;;;;;;6735950;88;20217;-80
2023/06/29 03:13:33;;;;;;;1999.90;999.90;;;18.70;99.90;;;;;;6739998;88;20190;-80
2023/06/29 03:23:33;;;;;;;1999.90;999.90;;;18.90;99.90;;;;;;6742030;88;20217;-80
2023/06/29 03:33:34;;;;;;;1999.90;999.90;;;18.80;99.90;;;;;;6742407;88;20198;-80
2023/06/29 03:43:34;;;;;;;1999.90;999.90;;;18.80;99.90;;;;;;6737457;88;20205;-79
2023/06/29 03:53:35;;;;;;;1999.90;999.90;;;18.80;99.90;;;;;;6740825;88;20332;-79
2023/06/29 04:03:35;;;;;;;1999.90;999.90;;;19.00;99.90;;;;;;6739313;88;20216;-80
2023/06/29 04:13:36;;;;;;;1999.90;999.90;;;19.20;99.90;;;;;;6740454;88;20190;-80
2023/06/29 04:23:36;;;;;;;1999.90;999.90;;;19.20;99.90;;;;;;6737142;88;20247;-79
2023/06/29 04:33:37;;;;;;;1999.90;999.90;;;19.20;99.90;;;;;;6740292;88;20478;-78
2023/06/29 04:43:38;;;;;;;1999.90;999.90;;;19.30;99.90;;;;;;6741064;88;20212;-79
2023/06/29 04:53:39;;;;;;;1999.90;999.90;;;19.40;99.90;;;;;;6741680;88;20215;-79
2023/06/29 05:03:39;;;;;;;1999.90;999.90;;;19.40;99.90;;;;;;6730600;88;20193;-79
2023/06/29 05:13:40;;;;;;;1999.90;999.90;;;19.40;99.90;;;;;;6735673;88;20231;-82
2023/06/29 05:23:40;;;;;;;1999.90;999.90;;;19.50;99.90;;;;;;6735125;88;20823;-80
2023/06/29 05:33:41;;;;;;;1999.90;999.90;;;19.70;99.90;;;;;;6734667;88;20189;-80
2023/06/29 05:43:41;;;;;;;1999.90;999.90;;;20.00;99.90;;;;;;6733179;88;20207;-78
2023/06/29 05:53:42;;;;;;;1999.90;999.90;;;20.20;99.90;;;;;;6738730;88;20210;-83
2023/06/29 06:03:43;;;;;;;1999.90;999.90;;;20.70;99.90;;;;;;6738400;88;20208;-81
2023/06/29 06:13:43;;;;;;;1999.90;999.90;;;20.90;99.90;;;;;;6742647;88;20231;-81
2023/06/29 06:23:44;;;;;;;1999.90;999.90;;;21.00;99.90;;;;;;6745281;88;20161;-84
2023/06/29 06:33:45;;;;;;;1999.90;999.90;;;21.30;99.90;;;;;;6738650;88;20286;-81
2023/06/29 06:43:46;;;;;;;1999.90;999.90;;;21.50;99.90;;;;;;6741632;88;20197;-82
2023/06/29 06:53:46;;;;;;;1999.90;999.90;;;21.80;99.90;;;;;;6739982;88;20703;-80
2023/06/29 07:03:47;;;;;;;1999.90;999.90;;;22.00;99.90;;;;;;6738115;88;20332;-81
2023/06/29 07:13:47;;;;;;;1999.90;999.90;;;22.00;99.90;;;;;;6735186;88;20241;-81
2023/06/29 07:23:48;;;;;;;1999.90;999.90;;;22.00;99.90;;;;;;6736139;88;20259;-80
2023/06/29 07:33:48;;;;;;;1999.90;999.90;;;22.00;99.90;;;;;;6747235;88;20217;-80
2023/06/29 07:43:53;;;;;;;1999.90;999.90;;;22.10;99.90;;;;;;6741769;88;20194;-80
2023/06/29 07:53:54;;;;;;;1999.90;999.90;;;21.90;99.90;;;;;;6728251;88;20312;-79
2023/06/29 08:03:54;;;;;;;1999.90;999.90;;;22.00;99.90;;;;;;6728441;88;20592;-79
2023/06/29 08:13:55;;;;;;;1999.90;999.90;;;22.00;99.90;;;;;;6725846;88;20197;-79
2023/06/29 08:23:55;;;;;;;1999.90;999.90;;;22.10;99.90;;;;;;6728642;88;20264;-80
2023/06/29 08:33:56;;;;;;;1999.90;999.90;;;22.10;99.90;;;;;;6736650;88;20666;-79
2023/06/29 08:43:57;;;;;;;1999.90;999.90;;;22.50;99.90;;;;;;6731962;88;20633;-79
2023/06/29 08:53:58;;;;;;;1999.90;999.90;;;23.10;99.90;;;;;;6723125;88;20625;-79
2023/06/29 09:03:59;;;;;;;1999.90;999.90;;;23.30;99.90;;;;;;6728568;88;20255;-80
2023/06/29 09:14:05;;;;;;;1999.90;999.90;;;23.60;99.90;;;;;;6732484;88;20255;-78
2023/06/29 09:24:08;;;;;;;1999.90;999.90;;;24.00;99.90;;;;;;6721642;88;20379;-78
2023/06/29 09:34:19;;;;;;;1999.90;999.90;;;25.20;99.90;;;;;;6719981;88;20206;-79
2023/06/29 09:44:22;;;;;;;1999.90;999.90;;;27.50;99.90;;;;;;6721721;88;20185;-78
2023/06/29 09:54:25;;;;;;;1999.90;999.90;;;26.90;99.90;;;;;;6722138;88;20326;-79
2023/06/29 10:04:25;;;;;;;1999.90;999.90;;;26.50;99.90;;;;;;6724390;88;20263;-79
2023/06/29 10:14:26;;;;;;;1999.90;999.90;;;27.00;99.90;;;;;;6741267;88;20210;-79
2023/06/29 10:24:47;;;;;;;1999.90;999.90;;;26.40;99.90;;;;;;6727984;88;20285;-77
2023/06/29 10:35:07;;;;;;;1999.90;999.90;;;26.40;99.90;;;;;;6730758;88;20535;-79
2023/06/29 10:45:26;;;;;;;1999.90;999.90;;;25.80;99.90;;;;;;6721951;88;20237;-80
2023/06/29 10:55:37;;;;;;;1999.90;999.90;;;26.00;99.90;;;;;;6723825;88;20209;-79
2023/06/29 11:06:18;;;;;;;1999.90;999.90;;;28.70;98.40;;;;;;6748826;77;20342;-79
2023/06/29 11:16:19;;;;;;;1999.90;999.90;;;27.90;96.80;;;;;;6715754;88;20278;-78
2023/06/29 11:26:20;;;;;;;1999.90;999.90;;;28.00;97.30;;;;;;6726444;88;20193;-79
2023/06/29 11:36:29;;;;;;;1999.90;999.90;;;27.70;95.40;;;;;;6735184;88;20153;-79
2023/06/29 11:46:33;;;;;;;1999.90;999.90;;;26.70;96.50;;;;;;6732358;88;20300;-79
2023/06/29 11:56:40;;;;;;;1999.90;999.90;;;26.30;96.50;;;;;;6722599;88;20202;-80
2023/06/29 12:06:56;;;;;;;1999.90;999.90;;;26.10;97.20;;;;;;6717025;88;20189;-80
2023/06/29 12:16:57;;;;;;;1999.90;999.90;;;26.40;96.80;;;;;;6722063;88;20319;-79
2023/06/29 12:26:58;;;;;;;1999.90;999.90;;;26.90;96.20;;;;;;6720370;88;20210;-80
2023/06/29 12:36:59;;;;;;;1999.90;999.90;;;27.40;95.70;;;;;;6715354;88;20375;-81
2023/06/29 12:47:00;;;;;;;1999.90;999.90;;;27.50;96.00;;;;;;6720588;88;20305;-80
2023/06/29 12:57:01;;;;;;;1999.90;999.90;;;27.20;95.60;;;;;;6735486;88;20186;-79
2023/06/29 13:07:02;;;;;;;1999.90;999.90;;;26.80;96.40;;;;;;6711724;88;20609;-79
2023/06/29 13:17:03;;;;;;;1999.90;999.90;;;26.50;96.80;;;;;;6719129;88;20209;-79
2023/06/29 13:27:04;;;;;;;1999.90;999.90;;;26.70;97.00;;;;;;6714550;88;20211;-79
2023/06/29 13:37:05;;;;;;;1999.90;999.90;;;26.60;98.00;;;;;;6711648;88;20593;-79
2023/06/29 13:47:06;;;;;;;1999.90;999.90;;;26.50;98.10;;;;;;6717892;88;20221;-78
2023/06/29 13:57:07;;;;;;;1999.90;999.90;;;26.20;98.20;;;;;;6715002;88;20688;-79
2023/06/29 14:07:08;;;;;;;1999.90;999.90;;;26.10;99.00;;;;;;6716469;88;20198;-79
2023/06/29 14:17:08;;;;;;;1999.90;999.90;;;25.70;99.90;;;;;;6717386;88;20205;-79
2023/06/29 14:27:09;;;;;;;1999.90;999.90;;;25.70;99.90;;;;;;6715767;88;20220;-79
2023/06/29 14:37:09;;;;;;;1999.90;999.90;;;26.20;99.70;;;;;;6710705;88;20248;-80
2023/06/29 14:47:10;;;;;;;1999.90;999.90;;;26.60;99.90;;;;;;6715307;88;20198;-79
2023/06/29 14:57:10;;;;;;;1999.90;999.90;;;26.20;99.90;;;;;;6709147;88;20767;-79
2023/06/29 15:07:11;;;;;;;1999.90;999.90;;;26.40;99.90;;;;;;6717625;88;20253;-79
2023/06/29 15:17:11;;;;;;;1999.90;999.90;;;26.20;99.90;;;;;;6719009;88;20249;-79
2023/06/29 15:27:12;;;;;;;1999.90;999.90;;;25.80;99.90;;;;;;6731091;88;20221;-79
2023/06/29 15:37:13;;;;;;;1999.90;999.90;;;25.50;99.90;;;;;;6719946;88;20248;-80
2023/06/29 15:47:13;;;;;;;1999.90;999.90;;;25.40;99.90;;;;;;6715857;88;20240;-80
2023/06/29 15:57:14;;;;;;;1999.90;999.90;;;25.30;99.90;;;;;;6722446;88;20206;-76
2023/06/29 16:07:14;;;;;;;1999.90;999.90;;;25.30;99.90;;;;;;6716052;88;20307;-77
2023/06/29 16:17:15;;;;;;;1999.90;999.90;;;25.30;99.90;;;;;;6716735;88;20447;-78
2023/06/29 16:27:15;;;;;;;1999.90;999.90;;;25.20;99.90;;;;;;6711178;88;20227;-76
2023/06/29 16:37:16;;;;;;;1999.90;999.90;;;24.70;99.90;;;;;;6721007;88;20218;-77
2023/06/29 16:47:17;;;;;;;1999.90;999.90;;;24.60;99.90;;;;;;6728177;88;20248;-76
2023/06/29 17:07:21;;;;;;;1999.90;999.90;;;25.10;99.90;;;;;;6710112;88;20215;-80
2023/06/29 17:17:21;;;;;;;1999.90;999.90;;;25.00;99.90;;;;;;6722345;88;20264;-79
2023/06/29 17:27:22;;;;;;;1999.90;999.90;;;25.00;99.90;;;;;;6702623;88;20316;-79
2023/06/29 17:37:22;;;;;;;1999.90;999.90;;;25.00;99.90;;;;;;6709021;88;20226;-79
2023/06/29 17:47:23;;;;;;;1999.90;999.90;;;25.10;99.90;;;;;;6718671;88;20179;-82
2023/06/29 17:57:23;;;;;;;1999.90;999.90;;;25.10;99.90;;;;;;6730934;88;20198;-82
2023/06/29 18:07:24;;;;;;;1999.90;999.90;;;25.00;99.90;;;;;;6728269;88;20171;-83
2023/06/29 18:17:24;;;;;;;1999.90;999.90;;;25.00;99.90;;;;;;6731168;88;20135;-82
2023/06/29 18:27:27;;;;;;;1999.90;999.90;;;24.90;99.90;;;;;;6727026;88;20292;-81
2023/06/29 18:37:27;;;;;;;1999.90;999.90;;;24.80;99.90;;;;;;6730417;88;20154;-82
2023/06/29 18:47:28;;;;;;;1999.90;999.90;;;24.70;99.90;;;;;;6728251;88;20764;-82
2023/06/29 18:57:29;;;;;;;1999.90;999.90;;;24.60;99.90;;;;;;6714451;88;20201;-81
2023/06/29 19:07:30;;;;;;;1999.90;999.90;;;24.40;99.90;;;;;;6716654;88;20219;-81
2023/06/29 19:17:31;;;;;;;1999.90;999.90;;;24.10;99.90;;;;;;6720610;88;20272;-82
2023/06/29 19:27:32;;;;;;;1999.90;999.90;;;23.90;99.90;;;;;;6706125;88;20253;-81
2023/06/29 19:37:32;;;;;;;1999.90;999.90;;;23.70;99.90;;;;;;6712732;88;20310;-80
2023/06/29 19:47:33;;;;;;;1999.90;999.90;;;23.60;99.90;;;;;;6709295;88;20739;-80
2023/06/29 19:57:33;;;;;;;1999.90;999.90;;;23.40;99.90;;;;;;6716142;88;20235;-80
2023/06/29 20:07:38;;;;;;;1999.90;999.90;;;23.30;99.90;;;;;;6714480;88;20211;-81
2023/06/29 20:17:39;;;;;;;1999.90;999.90;;;23.10;99.90;;;;;;6718122;88;20185;-80
2023/06/29 20:27:39;;;;;;;1999.90;999.90;;;23.10;99.90;;;;;;6729014;88;20228;-80
2023/06/29 20:37:40;;;;;;;1999.90;999.90;;;23.00;99.90;;;;;;6729624;88;20186;-81
2023/06/29 20:47:40;;;;;;;1999.90;999.90;;;22.90;99.90;;;;;;6733606;88;20223;-80
2023/06/29 20:57:41;;;;;;;1999.90;999.90;;;22.70;99.90;;;;;;6727021;88;20213;-80
2023/06/29 21:07:42;;;;;;;1999.90;999.90;;;22.70;99.90;;;;;;6723196;88;20718;-80
2023/06/29 21:17:42;;;;;;;1999.90;999.90;;;22.50;99.90;;;;;;6726325;88;20210;-79
2023/06/29 21:27:43;;;;;;;1999.90;999.90;;;22.30;99.90;;;;;;6723555;88;20199;-80
2023/06/29 21:37:44;;;;;;;1999.90;999.90;;;22.10;99.90;;;;;;6721844;88;20704;-80
2023/06/29 21:47:44;;;;;;;1999.90;999.90;;;21.90;99.90;;;;;;6724361;88;20187;-80
2023/06/29 21:57:45;;;;;;;1999.90;999.90;;;21.70;99.90;;;;;;6722947;88;20199;-79
2023/06/29 22:07:45;;;;;;;1999.90;999.90;;;21.10;99.90;;;;;;6721018;88;20233;-80
2023/06/29 22:17:48;;;;;;;1999.90;999.90;;;20.60;99.90;;;;;;6734421;88;20262;-80
2023/06/29 22:27:49;;;;;;;1999.90;999.90;;;20.40;99.90;;;;;;6723747;88;20187;-80
2023/06/29 22:37:50;;;;;;;1999.90;999.90;;;20.30;99.90;;;;;;6722986;88;20229;-81
2023/06/29 22:47:50;;;;;;;1999.90;999.90;;;20.20;99.90;;;;;;6725685;88;20238;-81
2023/06/29 22:57:51;;;;;;;1999.90;999.90;;;20.20;99.90;;;;;;6725547;88;20205;-81
2023/06/29 23:08:32;;;;;;;1999.90;999.90;;;20.00;99.90;;;;;;6708034;77;20219;-82
2023/06/29 23:18:33;;;;;;;1999.90;999.90;;;20.10;99.90;;;;;;6767347;88;20223;-79
2023/06/29 23:28:35;;;;;;;1999.90;999.90;;;20.00;99.90;;;;;;6766095;88;20207;-79
2023/06/29 23:38:36;;;;;;;1999.90;999.90;;;19.80;99.90;;;;;;6774140;88;20189;-78
2023/06/29 23:48:36;;;;;;;1999.90;999.90;;;19.40;99.90;;;;;;6727545;88;20256;-81
2023/06/29 23:58:37;;;;;;;1999.90;999.90;;;19.20;99.90;;;;;;6754499;88;20302;-79
